Time;durP1;ratioP1;P1;durP2;ratioP2;P2;SDS_P1;SDS_P2;PMS_P1;PMS_P2;Temp;Humidity;BMP_temperature;BMP_pressure;BME280_temperature;BME280_humidity;BME280_pressure;Samples;Min_cycle;Max_cycle;Signal;HPM_P1;HPM_P2
2021/08/11 00:01:35;;;;;;;9.77;8.77;;;19.80;99.90;;;;;;6179463;23;20442;-82
2021/08/11 00:04:10;;;;;;;9.07;8.27;;;19.70;99.90;;;;;;6157403;23;20418;-85
2021/08/11 00:06:37;;;;;;;9.73;8.83;;;19.70;99.90;;;;;;6157154;23;20434;-84
2021/08/11 00:09:04;;;;;;;10.03;9.00;;;19.70;99.90;;;;;;6156218;23;20407;-86
2021/08/11 00:11:35;;;;;;;9.63;8.63;;;19.70;99.90;;;;;;6146561;23;20435;-86
2021/08/11 00:14:02;;;;;;;9.47;8.60;;;19.70;99.90;;;;;;6172937;23;20407;-85
2021/08/11 00:16:29;;;;;;;9.13;8.23;;;19.70;99.90;;;;;;6169906;23;20418;-85
2021/08/11 00:18:58;;;;;;;9.33;8.33;;;19.60;99.90;;;;;;6170837;23;20446;-87
2021/08/11 00:21:25;;;;;;;9.03;8.13;;;19.60;99.90;;;;;;6169403;23;20445;-86
2021/08/11 00:23:52;;;;;;;10.00;9.00;;;19.60;99.90;;;;;;6144154;23;20403;-86
2021/08/11 00:26:19;;;;;;;9.67;8.67;;;19.60;99.90;;;;;;6168008;23;20445;-83
2021/08/11 00:28:46;;;;;;;10.77;9.00;;;19.70;99.90;;;;;;6142442;23;20437;-85
2021/08/11 00:31:15;;;;;;;11.13;10.10;;;19.80;99.90;;;;;;6168103;23;20494;-86
2021/08/11 00:33:45;;;;;;;10.47;8.50;;;19.80;99.90;;;;;;6195911;23;20417;-86
2021/08/11 00:36:14;;;;;;;11.90;9.73;;;19.80;99.90;;;;;;6172210;23;20414;-85
2021/08/11 00:38:40;;;;;;;11.07;9.87;;;19.90;99.90;;;;;;6198130;23;20414;-84
2021/08/11 00:41:07;;;;;;;12.00;10.80;;;19.80;99.90;;;;;;6197972;23;20528;-83
2021/08/11 00:43:34;;;;;;;10.97;9.93;;;19.80;99.90;;;;;;6173105;23;20472;-84
2021/08/11 00:46:02;;;;;;;11.40;10.27;;;19.70;99.90;;;;;;6198541;23;20417;-85
2021/08/11 00:48:28;;;;;;;11.00;10.00;;;19.90;99.90;;;;;;6172630;23;20406;-83
2021/08/11 00:50:57;;;;;;;11.23;9.70;;;19.70;99.90;;;;;;6172716;23;20432;-85
2021/08/11 00:53:27;;;;;;;9.83;8.83;;;19.60;99.90;;;;;;6175135;23;20921;-84
2021/08/11 00:55:57;;;;;;;10.80;9.80;;;19.60;99.90;;;;;;6172106;23;20786;-84
2021/08/11 00:58:25;;;;;;;12.93;10.60;;;19.70;99.90;;;;;;6173477;23;20802;-85
2021/08/11 01:00:54;;;;;;;13.10;11.80;;;19.70;99.90;;;;;;6172700;23;20442;-84
2021/08/11 01:03:28;;;;;;;14.37;11.53;;;19.80;99.90;;;;;;6173409;23;20502;-85
2021/08/11 01:05:59;;;;;;;12.60;11.30;;;19.90;99.90;;;;;;6197666;23;20390;-84
2021/08/11 01:08:29;;;;;;;16.50;13.70;;;19.80;99.90;;;;;;6199951;23;20391;-84
2021/08/11 01:10:57;;;;;;;16.30;13.17;;;19.50;99.90;;;;;;6175233;23;20406;-84
2021/08/11 01:13:25;;;;;;;13.03;11.57;;;19.50;99.90;;;;;;6173551;23;20434;-85
2021/08/11 01:15:54;;;;;;;17.33;14.13;;;19.40;99.90;;;;;;6172025;23;20476;-83
2021/08/11 01:18:22;;;;;;;21.27;13.47;;;19.20;99.90;;;;;;6171548;23;21022;-84
2021/08/11 01:20:58;;;;;;;30.27;14.83;;;19.20;99.90;;;;;;6172781;23;20822;-85
2021/08/11 01:23:30;;;;;;;20.93;14.20;;;19.10;99.90;;;;;;6197821;23;20442;-82
2021/08/11 01:26:06;;;;;;;35.43;13.93;;;18.90;99.90;;;;;;6171620;23;20436;-84
2021/08/11 01:28:58;;;;;;;32.10;13.77;;;18.80;99.90;;;;;;6171454;23;20458;-83
2021/08/11 01:31:58;;;;;;;28.70;12.83;;;18.70;99.90;;;;;;6171571;23;20450;-86
2021/08/11 01:34:43;;;;;;;28.23;11.80;;;18.80;99.90;;;;;;6171897;23;20808;-84
2021/08/11 01:37:23;;;;;;;42.07;14.70;;;19.00;99.90;;;;;;6198064;23;20996;-85
2021/08/11 01:39:53;;;;;;;40.20;12.20;;;19.00;99.90;;;;;;6197671;23;20442;-84
2021/08/11 01:42:29;;;;;;;39.63;12.43;;;19.00;99.90;;;;;;6197326;23;20461;-80
2021/08/11 01:45:20;;;;;;;59.17;13.80;;;19.10;99.90;;;;;;6196668;23;20427;-84
2021/08/11 01:47:55;;;;;;;33.33;13.43;;;18.90;99.90;;;;;;6171087;23;20433;-86
2021/08/11 01:50:23;;;;;;;57.83;14.30;;;19.00;99.90;;;;;;6197103;23;20457;-83
2021/08/11 01:52:50;;;;;;;28.30;11.33;;;18.80;99.90;;;;;;6196228;23;20476;-83
2021/08/11 01:55:17;;;;;;;29.90;14.23;;;18.90;99.90;;;;;;6171527;23;20747;-85
2021/08/11 01:57:48;;;;;;;28.50;13.67;;;19.00;99.90;;;;;;6196744;23;20941;-84
2021/08/11 02:00:22;;;;;;;36.03;13.00;;;19.00;99.90;;;;;;6198740;23;20437;-84
2021/08/11 02:02:50;;;;;;;33.33;13.37;;;19.10;99.90;;;;;;6181483;23;20453;-83
2021/08/11 02:05:22;;;;;;;21.60;13.50;;;19.10;99.90;;;;;;6182924;23;20763;-84
2021/08/11 02:07:49;;;;;;;23.83;13.60;;;19.20;99.90;;;;;;6208938;23;20402;-84
2021/08/11 02:10:17;;;;;;;22.53;12.60;;;19.10;99.90;;;;;;6182333;23;20413;-83
2021/08/11 02:12:44;;;;;;;19.50;15.03;;;19.10;99.90;;;;;;6171818;23;20509;-82
2021/08/11 02:15:12;;;;;;;19.73;14.53;;;19.20;99.90;;;;;;6163387;23;20912;-84
2021/08/11 02:17:40;;;;;;;18.37;14.67;;;19.10;99.90;;;;;;6163005;23;20906;-84
2021/08/11 02:20:10;;;;;;;15.40;13.53;;;19.20;99.90;;;;;;6164421;23;20437;-82
2021/08/11 02:22:37;;;;;;;16.80;15.00;;;19.10;99.90;;;;;;6173608;23;20414;-85
2021/08/11 02:25:07;;;;;;;17.27;15.00;;;19.00;99.90;;;;;;6180969;23;20440;-85
2021/08/11 02:27:48;;;;;;;16.30;14.60;;;19.10;99.90;;;;;;6177152;23;20448;-83
2021/08/11 02:30:19;;;;;;;16.50;14.80;;;18.90;99.90;;;;;;6197410;23;20394;-84
2021/08/11 02:32:59;;;;;;;17.30;14.27;;;18.70;99.90;;;;;;6168133;23;20485;-84
2021/08/11 02:35:38;;;;;;;15.23;12.57;;;18.70;99.90;;;;;;6194715;23;20406;-84
2021/08/11 02:38:18;;;;;;;16.40;13.77;;;18.60;99.90;;;;;;6195119;23;20410;-84
2021/08/11 02:40:58;;;;;;;17.03;12.90;;;18.50;99.90;;;;;;6195478;23;20430;-84
2021/08/11 02:43:28;;;;;;;14.37;12.90;;;18.70;99.90;;;;;;6168944;23;20421;-83
2021/08/11 02:46:01;;;;;;;14.17;11.90;;;18.80;99.90;;;;;;6170459;23;20401;-82
2021/08/11 02:48:29;;;;;;;13.30;11.90;;;18.90;99.90;;;;;;6203474;23;20388;-84
2021/08/11 02:50:56;;;;;;;14.73;12.00;;;18.70;99.90;;;;;;6206631;23;20473;-84
2021/08/11 02:53:26;;;;;;;15.40;13.90;;;18.70;99.90;;;;;;6173455;23;20430;-83
2021/08/11 02:55:53;;;;;;;17.03;13.73;;;18.90;99.90;;;;;;6166625;23;20417;-81
2021/08/11 02:58:21;;;;;;;15.47;13.10;;;19.00;99.90;;;;;;6167785;23;20401;-85
2021/08/11 03:00:49;;;;;;;18.37;13.00;;;19.00;99.90;;;;;;6193873;23;20452;-85
2021/08/11 03:03:17;;;;;;;15.53;13.93;;;18.90;99.90;;;;;;6166263;23;20437;-84
2021/08/11 03:05:45;;;;;;;15.07;13.53;;;18.90;99.90;;;;;;6167442;23;20493;-83
2021/08/11 03:08:14;;;;;;;14.97;13.40;;;18.90;99.90;;;;;;6167544;23;20398;-82
2021/08/11 03:10:41;;;;;;;17.10;13.87;;;18.80;99.90;;;;;;6167645;23;20414;-83
2021/08/11 03:13:12;;;;;;;17.97;15.37;;;18.80;99.90;;;;;;6191950;23;20514;-84
2021/08/11 03:15:43;;;;;;;16.17;13.10;;;18.80;99.90;;;;;;6194925;23;20390;-83
2021/08/11 03:18:10;;;;;;;14.10;12.70;;;18.80;99.90;;;;;;6193182;23;20398;-83
2021/08/11 03:20:40;;;;;;;15.20;13.17;;;18.60;99.90;;;;;;6168592;23;20433;-86
2021/08/11 03:23:07;;;;;;;13.33;12.03;;;18.60;99.90;;;;;;6188164;23;20440;-84
2021/08/11 03:25:33;;;;;;;15.90;13.37;;;18.70;99.90;;;;;;6163216;23;20413;-83
2021/08/11 03:28:00;;;;;;;13.23;11.93;;;18.70;99.90;;;;;;6162522;23;20489;-83
2021/08/11 03:30:27;;;;;;;11.70;10.57;;;18.60;99.90;;;;;;6186683;23;20418;-83
2021/08/11 03:32:54;;;;;;;14.20;10.70;;;18.40;99.90;;;;;;6162109;23;20508;-83
2021/08/11 03:35:20;;;;;;;11.63;10.50;;;18.30;99.90;;;;;;6188728;23;20992;-83
2021/08/11 03:37:48;;;;;;;13.90;10.50;;;18.30;99.90;;;;;;6163523;23;21000;-84
2021/08/11 03:40:15;;;;;;;12.33;10.80;;;18.60;99.90;;;;;;6164654;23;20976;-82
2021/08/11 03:42:42;;;;;;;15.10;11.50;;;18.50;99.90;;;;;;6191489;23;20448;-84
2021/08/11 03:45:09;;;;;;;12.40;11.10;;;18.60;99.90;;;;;;6168951;23;20894;-84
2021/08/11 03:47:40;;;;;;;11.60;10.20;;;18.40;99.90;;;;;;6168475;23;20408;-85
2021/08/11 03:50:07;;;;;;;12.57;10.60;;;18.40;99.90;;;;;;6166880;23;20413;-84
2021/08/11 03:52:34;;;;;;;11.40;10.30;;;18.40;99.90;;;;;;6192986;23;20513;-83
2021/08/11 03:55:01;;;;;;;13.83;12.20;;;18.50;99.90;;;;;;6192639;23;20425;-84
2021/08/11 03:57:28;;;;;;;12.40;10.70;;;18.50;99.90;;;;;;6164875;23;20406;-82
2021/08/11 03:59:54;;;;;;;12.80;11.50;;;18.40;99.90;;;;;;6191044;23;20513;-85
2021/08/11 04:02:21;;;;;;;12.30;10.40;;;18.50;99.90;;;;;;6167580;23;20432;-82
2021/08/11 04:04:48;;;;;;;13.27;11.50;;;18.40;99.90;;;;;;6168958;23;20414;-84
2021/08/11 04:07:15;;;;;;;13.20;10.70;;;18.30;99.90;;;;;;6193186;23;20826;-85
2021/08/11 04:09:44;;;;;;;11.63;10.50;;;18.20;99.90;;;;;;6168323;23;20908;-84
2021/08/11 04:12:10;;;;;;;15.30;10.87;;;18.20;99.90;;;;;;6193165;23;20425;-85
2021/08/11 04:14:37;;;;;;;14.90;12.07;;;18.10;99.90;;;;;;6192747;23;20405;-85
2021/08/11 04:17:04;;;;;;;14.53;13.00;;;18.40;99.90;;;;;;6193138;23;20406;-84
2021/08/11 04:19:31;;;;;;;14.13;11.93;;;18.40;99.90;;;;;;6193603;23;20417;-85
2021/08/11 04:21:58;;;;;;;16.30;13.70;;;18.40;99.90;;;;;;6167703;23;20495;-85
2021/08/11 04:24:25;;;;;;;17.93;13.27;;;18.40;99.90;;;;;;6193502;23;20402;-84
2021/08/11 04:26:52;;;;;;;17.50;13.70;;;18.50;99.90;;;;;;6169068;23;20415;-84
2021/08/11 04:29:19;;;;;;;16.23;12.60;;;18.50;99.90;;;;;;6168358;23;20486;-84
2021/08/11 04:31:46;;;;;;;18.27;15.47;;;18.50;99.90;;;;;;6199919;23;20441;-85
2021/08/11 04:34:14;;;;;;;28.40;16.30;;;18.40;99.90;;;;;;6211468;23;20403;-83
2021/08/11 04:36:41;;;;;;;24.93;16.20;;;18.20;99.90;;;;;;6184108;23;20433;-83
2021/08/11 04:39:09;;;;;;;29.30;18.47;;;18.30;99.90;;;;;;6199023;23;20410;-83
2021/08/11 04:41:36;;;;;;;28.60;16.90;;;18.50;99.90;;;;;;6169581;23;20785;-84
2021/08/11 04:44:06;;;;;;;24.70;17.37;;;18.50;99.90;;;;;;6170515;23;20452;-84
2021/08/11 04:46:33;;;;;;;22.20;15.00;;;18.40;99.90;;;;;;6169331;23;20414;-84
2021/08/11 04:49:03;;;;;;;19.60;15.30;;;18.10;99.90;;;;;;6195861;23;20496;-84
2021/08/11 04:51:30;;;;;;;19.70;14.43;;;18.00;99.90;;;;;;6171144;23;20469;-84
2021/08/11 04:53:59;;;;;;;19.83;12.93;;;17.90;99.90;;;;;;6197519;23;20420;-84
2021/08/11 04:56:26;;;;;;;19.90;13.00;;;18.10;99.90;;;;;;6206735;23;20414;-82
2021/08/11 04:58:53;;;;;;;28.00;14.70;;;18.20;99.90;;;;;;6185510;23;20426;-86
2021/08/11 05:01:20;;;;;;;28.00;13.70;;;17.90;99.90;;;;;;6182543;23;20441;-84
2021/08/11 05:03:47;;;;;;;24.20;16.70;;;17.90;99.90;;;;;;6171895;23;20420;-85
2021/08/11 05:06:15;;;;;;;24.53;14.93;;;17.80;99.90;;;;;;6196047;23;20513;-83
2021/08/11 05:08:44;;;;;;;36.20;16.60;;;17.90;99.90;;;;;;6197320;23;20424;-83
2021/08/11 05:11:11;;;;;;;35.17;16.30;;;17.90;99.90;;;;;;6197301;23;20489;-83
2021/08/11 05:13:38;;;;;;;17.57;11.33;;;17.80;99.90;;;;;;6196716;23;20437;-84
2021/08/11 05:16:05;;;;;;;20.83;11.00;;;18.00;99.90;;;;;;6171158;23;20413;-84
2021/08/11 05:18:31;;;;;;;18.83;12.40;;;17.90;99.90;;;;;;6196558;23;20442;-83
2021/08/11 05:21:01;;;;;;;23.33;11.63;;;17.90;99.90;;;;;;6196699;23;20492;-85
2021/08/11 05:23:28;;;;;;;22.00;13.07;;;17.90;99.90;;;;;;6195625;23;20522;-85
2021/08/11 05:25:55;;;;;;;25.83;11.73;;;18.00;99.90;;;;;;6196754;23;20413;-83
2021/08/11 05:28:22;;;;;;;27.83;14.53;;;18.00;99.90;;;;;;6196015;23;20413;-85
2021/08/11 05:30:48;;;;;;;27.10;13.60;;;18.00;99.90;;;;;;6196753;23;20482;-84
2021/08/11 05:33:15;;;;;;;27.73;14.20;;;17.80;99.90;;;;;;6196586;23;20448;-83
2021/08/11 05:35:42;;;;;;;30.50;13.67;;;17.90;99.90;;;;;;6170133;23;20829;-83
2021/08/11 05:38:10;;;;;;;35.83;14.40;;;18.00;99.90;;;;;;6173073;23;20410;-82
2021/08/11 05:40:37;;;;;;;22.70;12.90;;;18.00;99.90;;;;;;6177343;23;20527;-83
2021/08/11 05:43:04;;;;;;;20.53;12.90;;;17.90;99.90;;;;;;6182902;23;20430;-83
2021/08/11 05:45:31;;;;;;;12.73;11.40;;;17.80;99.90;;;;;;6171076;23;20478;-83
2021/08/11 05:47:58;;;;;;;14.77;11.50;;;17.60;99.90;;;;;;6197159;23;20410;-84
2021/08/11 05:50:25;;;;;;;18.53;11.43;;;17.60;99.90;;;;;;6207029;23;20489;-81
2021/08/11 05:52:51;;;;;;;12.03;10.93;;;17.70;99.90;;;;;;6206972;23;21009;-86
2021/08/11 05:55:19;;;;;;;12.80;11.50;;;17.80;99.90;;;;;;6199565;23;20461;-82
2021/08/11 05:57:45;;;;;;;11.67;10.43;;;17.80;99.90;;;;;;6197429;23;20409;-85
2021/08/11 06:00:12;;;;;;;13.07;11.00;;;17.80;99.90;;;;;;6195173;23;20410;-82
2021/08/11 06:02:43;;;;;;;12.33;11.07;;;18.20;99.90;;;;;;6192898;23;20429;-84
2021/08/11 06:05:10;;;;;;;12.37;11.13;;;18.30;99.90;;;;;;6191497;23;20481;-85
2021/08/11 06:07:38;;;;;;;13.93;12.57;;;18.30;99.90;;;;;;6191174;23;20429;-84
2021/08/11 06:10:06;;;;;;;11.00;9.80;;;18.10;99.90;;;;;;6191747;23;20413;-86
2021/08/11 06:12:32;;;;;;;12.20;11.00;;;18.10;99.90;;;;;;6189871;23;20433;-84
2021/08/11 06:14:59;;;;;;;14.40;12.97;;;18.30;99.90;;;;;;6192060;23;20421;-84
2021/08/11 06:17:26;;;;;;;11.47;10.13;;;18.40;99.90;;;;;;6165278;23;20413;-84
2021/08/11 06:19:53;;;;;;;13.83;12.33;;;18.40;99.90;;;;;;6167890;23;20441;-84
2021/08/11 06:22:20;;;;;;;13.03;11.80;;;18.30;99.90;;;;;;6165548;23;20453;-86
2021/08/11 06:24:46;;;;;;;14.00;12.60;;;18.20;99.90;;;;;;6164055;23;20406;-87
2021/08/11 06:27:13;;;;;;;13.83;12.53;;;18.00;99.90;;;;;;6189661;23;20410;-84
2021/08/11 06:29:40;;;;;;;14.53;12.50;;;18.10;99.90;;;;;;6164995;23;20406;-83
2021/08/11 06:32:06;;;;;;;14.07;11.43;;;18.10;99.90;;;;;;6191262;23;20442;-85
2021/08/11 06:34:33;;;;;;;13.67;12.33;;;18.20;99.90;;;;;;6192489;23;20505;-84
2021/08/11 06:37:00;;;;;;;15.97;13.00;;;18.40;99.90;;;;;;6189162;23;20422;-85
2021/08/11 06:39:27;;;;;;;14.90;13.40;;;18.30;99.90;;;;;;6165417;23;20405;-85
2021/08/11 06:41:53;;;;;;;15.63;14.03;;;18.40;99.90;;;;;;6190477;23;20529;-83
2021/08/11 06:44:20;;;;;;;14.77;13.03;;;18.30;99.90;;;;;;6190564;23;20961;-85
2021/08/11 06:46:47;;;;;;;14.73;13.10;;;18.50;99.90;;;;;;6203083;23;20441;-87
2021/08/11 06:49:14;;;;;;;15.90;13.70;;;18.60;99.90;;;;;;6210613;23;20405;-88
2021/08/11 06:51:41;;;;;;;15.47;13.87;;;18.70;99.90;;;;;;6210359;23;20452;-84
2021/08/11 06:54:11;;;;;;;15.70;14.10;;;18.80;99.90;;;;;;6186070;23;20437;-87
2021/08/11 06:56:39;;;;;;;15.27;13.77;;;18.70;99.90;;;;;;6210094;23;20417;-87
2021/08/11 06:59:06;;;;;;;16.13;14.43;;;18.60;99.90;;;;;;6209605;23;20425;-88
2021/08/11 07:01:33;;;;;;;18.30;15.03;;;18.60;99.90;;;;;;6178922;23;20454;-84
2021/08/11 07:04:00;;;;;;;17.57;15.77;;;18.50;99.90;;;;;;6189956;23;20417;-86
2021/08/11 07:06:27;;;;;;;16.70;15.00;;;18.30;99.90;;;;;;6168299;23;20414;-83
2021/08/11 07:08:54;;;;;;;16.27;14.53;;;18.30;99.90;;;;;;6167572;23;20410;-85
2021/08/11 07:11:21;;;;;;;15.57;13.73;;;18.20;99.90;;;;;;6193751;23;20417;-85
2021/08/11 07:13:48;;;;;;;17.47;14.63;;;18.30;99.90;;;;;;6167173;23;20473;-86
2021/08/11 07:16:15;;;;;;;15.37;13.80;;;18.50;99.90;;;;;;6165111;23;20859;-84
2021/08/11 07:18:42;;;;;;;17.27;15.23;;;18.70;99.90;;;;;;6164344;23;20413;-86
2021/08/11 07:21:09;;;;;;;14.53;13.13;;;18.90;99.90;;;;;;6166584;23;21019;-84
2021/08/11 07:23:36;;;;;;;15.70;14.10;;;19.30;99.90;;;;;;6191046;23;20444;-84
2021/08/11 07:26:04;;;;;;;15.27;12.33;;;19.30;99.90;;;;;;6165731;23;20469;-83
2021/08/11 07:28:31;;;;;;;12.70;11.50;;;19.40;99.90;;;;;;6190880;23;20420;-84
2021/08/11 07:30:58;;;;;;;12.57;11.47;;;19.30;99.90;;;;;;6165205;23;20441;-85
2021/08/11 07:33:25;;;;;;;12.60;11.10;;;19.40;99.90;;;;;;6185619;23;20442;-84
2021/08/11 07:35:52;;;;;;;13.17;11.20;;;19.60;99.90;;;;;;6164618;23;20413;-84
2021/08/11 07:38:18;;;;;;;11.83;10.70;;;19.80;99.90;;;;;;6164450;23;20410;-84
2021/08/11 07:40:45;;;;;;;14.80;11.30;;;19.80;99.90;;;;;;6165135;23;20422;-85
2021/08/11 07:43:12;;;;;;;11.73;10.63;;;19.80;99.90;;;;;;6164406;23;20448;-84
2021/08/11 07:45:39;;;;;;;11.20;10.27;;;20.30;99.90;;;;;;6191440;23;20422;-86
2021/08/11 07:48:06;;;;;;;12.50;11.30;;;20.60;99.90;;;;;;6163586;23;20406;-84
2021/08/11 07:50:37;;;;;;;11.90;10.70;;;20.80;99.90;;;;;;6190954;23;20462;-87
2021/08/11 07:53:04;;;;;;;12.87;11.47;;;21.00;99.90;;;;;;6164592;23;20437;-86
2021/08/11 07:55:31;;;;;;;12.50;10.60;;;22.10;99.90;;;;;;6189547;23;20421;-84
2021/08/11 07:57:58;;;;;;;10.47;9.50;;;23.00;99.90;;;;;;6165345;23;20478;-85
2021/08/11 08:00:25;;;;;;;8.87;8.00;;;24.50;99.90;;;;;;6164528;23;20414;-85
2021/08/11 08:02:52;;;;;;;9.43;8.50;;;26.30;95.70;;;;;;6189037;23;20449;-83
2021/08/11 08:05:20;;;;;;;9.57;8.57;;;25.60;94.80;;;;;;6165049;23;20394;-86
2021/08/11 08:07:47;;;;;;;8.83;7.93;;;25.40;95.40;;;;;;6164678;23;20466;-86
2021/08/11 08:10:15;;;;;;;10.03;7.93;;;25.60;95.40;;;;;;6191032;23;20468;-85
2021/08/11 08:12:43;;;;;;;10.00;8.97;;;25.60;94.80;;;;;;6189258;23;20457;-85
2021/08/11 08:15:13;;;;;;;10.80;9.33;;;24.40;95.80;;;;;;6175381;23;20399;-86
2021/08/11 08:17:41;;;;;;;11.40;10.23;;;23.40;98.00;;;;;;6210313;23;20406;-81
2021/08/11 08:20:13;;;;;;;14.87;10.17;;;22.90;99.50;;;;;;6200678;23;20386;-86
2021/08/11 08:22:39;;;;;;;11.17;10.17;;;22.40;99.90;;;;;;6165625;23;20545;-84
2021/08/11 08:25:07;;;;;;;11.17;8.60;;;22.50;99.90;;;;;;6164598;23;20421;-84
2021/08/11 08:27:33;;;;;;;8.87;8.07;;;24.00;99.90;;;;;;6165504;23;20410;-85
2021/08/11 08:30:00;;;;;;;8.70;8.00;;;25.50;97.30;;;;;;6196701;23;20409;-84
2021/08/11 08:32:30;;;;;;;8.43;7.70;;;27.10;93.00;;;;;;6177481;23;20460;-86
2021/08/11 08:34:57;;;;;;;8.43;7.60;;;27.70;92.00;;;;;;6173776;23;20438;-84
2021/08/11 08:37:31;;;;;;;9.80;7.90;;;28.80;87.40;;;;;;6135876;23;20402;-84
2021/08/11 08:40:03;;;;;;;7.33;6.60;;;28.70;86.50;;;;;;6162066;23;20418;-86
2021/08/11 08:42:30;;;;;;;7.93;7.10;;;28.90;86.60;;;;;;6162973;23;20451;-86
2021/08/11 08:44:56;;;;;;;7.63;6.97;;;29.70;83.10;;;;;;6163093;23;20407;-85
2021/08/11 08:47:24;;;;;;;8.27;7.57;;;30.90;77.60;;;;;;6161988;23;20399;-86
2021/08/11 08:49:51;;;;;;;7.40;6.83;;;30.30;76.60;;;;;;6161911;23;20501;-86
2021/08/11 08:52:20;;;;;;;8.10;7.40;;;29.40;80.50;;;;;;6162422;23;20430;-86
2021/08/11 08:54:48;;;;;;;8.33;7.63;;;29.30;79.00;;;;;;6142572;23;20410;-85
2021/08/11 08:57:16;;;;;;;10.27;7.50;;;29.10;80.80;;;;;;6168579;23;20399;-87
2021/08/11 08:59:44;;;;;;;7.50;6.73;;;30.10;78.70;;;;;;6149292;23;20399;-85
2021/08/11 09:02:14;;;;;;;8.00;7.30;;;30.60;75.70;;;;;;6164807;23;20871;-84
2021/08/11 09:04:41;;;;;;;8.27;7.60;;;30.30;74.20;;;;;;6162952;23;20407;-83
2021/08/11 09:07:14;;;;;;;6.80;6.10;;;30.30;74.90;;;;;;6160173;23;20933;-86
2021/08/11 09:09:41;;;;;;;6.83;6.00;;;31.00;73.30;;;;;;6135022;23;20430;-85
2021/08/11 09:12:17;;;;;;;5.93;5.33;;;31.20;71.30;;;;;;6133897;23;20426;-84
2021/08/11 09:14:47;;;;;;;4.60;4.20;;;31.60;69.50;;;;;;6161818;23;20391;-87
2021/08/11 09:17:35;;;;;;;4.90;4.50;;;32.10;64.60;;;;;;6150138;23;20541;-86
2021/08/11 09:20:04;;;;;;;6.83;5.40;;;31.90;64.40;;;;;;6178608;23;20395;-85
2021/08/11 09:22:47;;;;;;;6.73;4.40;;;31.70;65.00;;;;;;6178862;23;20541;-87
2021/08/11 09:25:15;;;;;;;5.10;4.70;;;31.40;64.40;;;;;;6167024;23;20416;-86
2021/08/11 09:27:44;;;;;;;9.00;7.37;;;32.00;63.40;;;;;;6164442;23;20472;-84
2021/08/11 09:30:24;;;;;;;7.90;6.97;;;31.80;62.00;;;;;;6163160;23;20422;-86
2021/08/11 09:32:56;;;;;;;7.00;6.23;;;31.30;64.90;;;;;;6136414;23;20562;-85
2021/08/11 09:35:38;;;;;;;5.90;5.10;;;31.30;64.70;;;;;;6135786;23;20407;-83
2021/08/11 09:38:12;;;;;;;5.40;4.90;;;31.60;63.40;;;;;;6137470;23;20405;-86
2021/08/11 09:40:41;;;;;;;5.27;4.87;;;31.20;64.20;;;;;;6166019;23;20401;-86
2021/08/11 09:43:15;;;;;;;5.57;5.07;;;30.10;68.00;;;;;;6136807;23;20498;-87
2021/08/11 09:45:43;;;;;;;5.73;5.20;;;29.70;69.20;;;;;;6154890;23;20413;-88
2021/08/11 09:48:11;;;;;;;7.53;5.73;;;29.40;70.20;;;;;;6155292;23;20407;-87
2021/08/11 09:51:06;;;;;;;6.73;5.80;;;28.20;73.70;;;;;;6155627;23;20422;-88
2021/08/11 09:53:33;;;;;;;6.50;5.90;;;27.10;80.50;;;;;;6178486;23;20494;-89
2021/08/11 09:56:09;;;;;;;6.10;5.47;;;26.30;83.70;;;;;;6181671;23;20414;-89
2021/08/11 09:58:38;;;;;;;5.40;4.90;;;25.70;88.20;;;;;;6156323;23;20421;-86
2021/08/11 10:01:06;;;;;;;5.67;5.03;;;25.50;90.70;;;;;;6155582;23;20471;-87
2021/08/11 10:03:33;;;;;;;5.33;4.93;;;25.50;91.20;;;;;;6144468;23;20477;-85
2021/08/11 10:06:01;;;;;;;5.00;4.60;;;25.50;91.60;;;;;;6162037;23;20947;-85
2021/08/11 10:08:33;;;;;;;6.27;4.93;;;25.50;91.40;;;;;;6137879;23;20442;-86
2021/08/11 10:11:01;;;;;;;6.03;5.53;;;25.30;91.70;;;;;;6137943;23;20962;-86
2021/08/11 10:13:30;;;;;;;6.30;5.10;;;25.50;91.80;;;;;;6137376;23;20435;-85
2021/08/11 10:15:58;;;;;;;5.87;5.37;;;26.30;90.70;;;;;;6136011;23;20411;-85
2021/08/11 10:18:26;;;;;;;5.20;4.70;;;26.90;88.00;;;;;;6161456;23;20442;-84
2021/08/11 10:21:00;;;;;;;5.33;4.83;;;27.00;88.90;;;;;;6160497;23;20417;-86
2021/08/11 10:23:27;;;;;;;5.20;4.80;;;27.10;87.40;;;;;;6162397;23;20518;-85
2021/08/11 10:25:57;;;;;;;5.40;4.90;;;26.90;87.10;;;;;;6143756;23;20411;-86
2021/08/11 10:28:24;;;;;;;5.10;4.60;;;26.40;88.50;;;;;;6163830;23;20407;-85
2021/08/11 10:30:52;;;;;;;6.00;5.47;;;26.00;89.80;;;;;;6166679;23;20421;-85
2021/08/11 10:33:20;;;;;;;5.60;5.20;;;25.90;90.80;;;;;;6186658;23;20457;-86
2021/08/11 10:35:49;;;;;;;5.60;5.10;;;25.70;91.20;;;;;;6166561;23;20489;-84
2021/08/11 10:38:16;;;;;;;6.70;6.10;;;25.40;91.60;;;;;;6166118;23;20407;-84
2021/08/11 10:40:51;;;;;;;5.47;4.97;;;25.40;91.50;;;;;;6192143;23;20461;-84
2021/08/11 10:43:18;;;;;;;5.53;5.00;;;25.30;91.40;;;;;;6166398;23;20449;-85
2021/08/11 10:45:56;;;;;;;7.77;5.40;;;25.40;92.00;;;;;;6168407;23;20977;-84
2021/08/11 10:48:23;;;;;;;5.17;4.67;;;25.50;91.30;;;;;;6166319;23;20425;-85
2021/08/11 10:50:51;;;;;;;5.10;4.70;;;25.70;90.80;;;;;;6193554;23;20410;-85
2021/08/11 10:53:18;;;;;;;5.10;4.70;;;26.00;90.50;;;;;;6191749;23;20770;-85
2021/08/11 10:55:48;;;;;;;6.20;4.90;;;25.90;90.20;;;;;;6166879;23;20500;-84
2021/08/11 10:58:41;;;;;;;4.57;4.03;;;25.80;90.80;;;;;;6193514;23;20465;-84
2021/08/11 11:01:33;;;;;;;5.57;5.00;;;26.60;88.20;;;;;;6198896;23;20794;-86
2021/08/11 11:04:01;;;;;;;6.13;5.13;;;26.50;87.50;;;;;;6201276;23;20414;-87
2021/08/11 11:06:52;;;;;;;5.40;5.00;;;27.10;86.00;;;;;;6183830;23;20390;-90
2021/08/11 11:09:21;;;;;;;5.43;4.93;;;26.90;85.70;;;;;;6211319;23;20424;-87
2021/08/11 11:11:49;;;;;;;6.43;5.70;;;26.40;87.70;;;;;;6183543;23;20494;-85
2021/08/11 11:14:46;;;;;;;5.00;4.60;;;26.80;87.90;;;;;;6185016;23;20428;-86
2021/08/11 11:17:18;;;;;;;5.13;4.63;;;27.70;85.50;;;;;;6185717;23;20406;-88
2021/08/11 11:20:03;;;;;;;4.80;4.23;;;27.80;82.70;;;;;;6185538;23;20425;-87
2021/08/11 11:22:40;;;;;;;5.90;4.63;;;28.20;80.70;;;;;;6185305;23;20452;-88
2021/08/11 11:25:14;;;;;;;4.80;4.40;;;28.00;79.80;;;;;;6185619;23;20410;-86
2021/08/11 11:27:41;;;;;;;5.07;4.60;;;27.60;81.30;;;;;;6197526;23;20474;-86
2021/08/11 11:30:09;;;;;;;6.03;4.93;;;27.20;82.20;;;;;;6203645;23;20457;-85
2021/08/11 11:32:37;;;;;;;5.90;4.90;;;26.90;83.00;;;;;;6178200;23;20528;-84
2021/08/11 11:35:27;;;;;;;5.73;5.10;;;26.50;84.80;;;;;;6171235;23;20414;-85
2021/08/11 11:38:08;;;;;;;4.83;4.40;;;26.10;85.70;;;;;;6195592;23;20529;-85
2021/08/11 11:40:54;;;;;;;5.00;4.50;;;26.40;85.20;;;;;;6199453;23;20434;-85
2021/08/11 11:43:27;;;;;;;4.40;4.00;;;25.90;86.80;;;;;;6192191;23;20450;-84
2021/08/11 11:45:55;;;;;;;5.90;4.53;;;25.80;88.60;;;;;;6165560;23;20413;-84
2021/08/11 11:48:23;;;;;;;5.67;5.07;;;25.70;89.90;;;;;;6189858;23;20437;-85
2021/08/11 11:50:52;;;;;;;9.80;4.73;;;25.70;88.80;;;;;;6165796;23;20449;-85
2021/08/11 11:53:21;;;;;;;3.50;3.20;;;25.70;88.80;;;;;;6195405;23;20505;-85
2021/08/11 11:55:48;;;;;;;3.70;3.40;;;26.20;85.30;;;;;;6194523;23;20398;-85
2021/08/11 11:58:17;;;;;;;3.67;3.37;;;26.20;84.30;;;;;;6165912;23;20416;-84
2021/08/11 12:00:46;;;;;;;4.10;3.47;;;26.20;85.40;;;;;;6193543;23;20410;-85
2021/08/11 12:03:15;;;;;;;4.90;4.07;;;26.20;85.10;;;;;;6193423;23;20457;-84
2021/08/11 12:05:52;;;;;;;5.13;3.73;;;26.10;84.30;;;;;;6166868;23;20410;-83
2021/08/11 12:08:21;;;;;;;4.80;3.33;;;26.20;83.10;;;;;;6191430;23;20394;-86
2021/08/11 12:10:50;;;;;;;3.80;3.50;;;26.50;81.20;;;;;;6194392;23;20390;-84
2021/08/11 12:13:19;;;;;;;3.20;2.90;;;26.50;80.60;;;;;;6168846;23;20454;-85
2021/08/11 12:15:51;;;;;;;4.83;3.13;;;26.80;80.80;;;;;;6171963;23;20433;-85
2021/08/11 12:18:23;;;;;;;4.13;3.50;;;27.20;79.90;;;;;;6171661;23;20424;-86
2021/08/11 12:20:52;;;;;;;3.90;3.60;;;27.80;76.40;;;;;;6170448;23;20466;-89
2021/08/11 12:23:26;;;;;;;3.67;3.33;;;28.50;74.40;;;;;;6193832;23;20509;-86
2021/08/11 12:25:54;;;;;;;3.53;3.20;;;29.00;71.60;;;;;;6194120;23;20405;-88
2021/08/11 12:28:24;;;;;;;4.67;3.70;;;28.70;73.10;;;;;;6169743;23;20492;-85
2021/08/11 12:31:08;;;;;;;4.53;2.97;;;28.50;73.10;;;;;;6195117;23;20434;-88
2021/08/11 12:33:39;;;;;;;3.37;3.07;;;28.70;69.00;;;;;;6194787;23;20464;-85
2021/08/11 12:36:23;;;;;;;3.27;2.97;;;28.60;69.80;;;;;;6195658;23;20489;-87
2021/08/11 12:39:04;;;;;;;3.50;3.20;;;28.40;69.50;;;;;;6168487;23;20406;-86
2021/08/11 12:41:33;;;;;;;3.40;3.10;;;28.20;71.00;;;;;;6169539;23;21079;-86
2021/08/11 12:44:12;;;;;;;3.33;3.03;;;28.10;72.10;;;;;;6195974;23;20433;-84
2021/08/11 12:46:45;;;;;;;4.20;3.00;;;27.90;71.40;;;;;;6194705;23;20386;-87
2021/08/11 12:49:19;;;;;;;3.87;3.47;;;28.50;70.50;;;;;;6171991;23;20414;-86